sensor_id;sensor_type;location;lat;lon;timestamp;temperature;humidity
18541;DHT22;9400;50.924;5.328;2022-07-17T00:00:16;18.40;99.90
18541;DHT22;9400;50.924;5.328;2022-07-17T00:02:44;18.40;99.90
18541;DHT22;9400;50.924;5.328;2022-07-17T00:05:14;18.40;99.90
18541;DHT22;9400;50.924;5.328;2022-07-17T00:07:42;18.30;99.90
18541;DHT22;9400;50.924;5.328;2022-07-17T00:10:11;18.30;99.90
18541;DHT22;9400;50.924;5.328;2022-07-17T00:12:38;18.20;99.90
18541;DHT22;9400;50.924;5.328;2022-07-17T00:15:06;18.10;99.90
18541;DHT22;9400;50.924;5.328;2022-07-17T00:17:35;18.20;99.90
18541;DHT22;9400;50.924;5.328;2022-07-17T00:20:04;18.20;99.90
18541;DHT22;9400;50.924;5.328;2022-07-17T00:22:33;18.10;99.90
18541;DHT22;9400;50.924;5.328;2022-07-17T00:25:01;18.00;99.90
18541;DHT22;9400;50.924;5.328;2022-07-17T00:27:30;18.10;99.90
18541;DHT22;9400;50.924;5.328;2022-07-17T00:29:57;18.10;99.90
18541;DHT22;9400;50.924;5.328;2022-07-17T00:32:26;18.00;99.90
18541;DHT22;9400;50.924;5.328;2022-07-17T00:34:54;17.80;99.90
18541;DHT22;9400;50.924;5.328;2022-07-17T00:37:21;17.70;99.90
18541;DHT22;9400;50.924;5.328;2022-07-17T00:39:49;17.80;99.90
18541;DHT22;9400;50.924;5.328;2022-07-17T00:42:17;17.80;99.90
18541;DHT22;9400;50.924;5.328;2022-07-17T00:44:46;17.80;99.90
18541;DHT22;9400;50.924;5.328;2022-07-17T00:47:15;17.70;99.90
18541;DHT22;9400;50.924;5.328;2022-07-17T00:49:43;17.70;99.90
18541;DHT22;9400;50.924;5.328;2022-07-17T00:52:11;17.60;99.90
18541;DHT22;9400;50.924;5.328;2022-07-17T00:54:40;17.50;99.90
18541;DHT22;9400;50.924;5.328;2022-07-17T00:57:11;17.50;99.90
18541;DHT22;9400;50.924;5.328;2022-07-17T00:59:39;17.60;99.90
18541;DHT22;9400;50.924;5.328;2022-07-17T01:02:10;17.60;99.90
18541;DHT22;9400;50.924;5.328;2022-07-17T01:04:38;17.50;99.90
18541;DHT22;9400;50.924;5.328;2022-07-17T01:07:06;17.50;99.90
18541;DHT22;9400;50.924;5.328;2022-07-17T01:09:35;17.50;99.90
18541;DHT22;9400;50.924;5.328;2022-07-17T01:12:03;17.60;99.90
18541;DHT22;9400;50.924;5.328;2022-07-17T01:14:31;17.50;99.90
18541;DHT22;9400;50.924;5.328;2022-07-17T01:17:00;17.40;99.90
18541;DHT22;9400;50.924;5.328;2022-07-17T01:19:29;17.30;99.90
18541;DHT22;9400;50.924;5.328;2022-07-17T01:21:59;17.20;99.90
18541;DHT22;9400;50.924;5.328;2022-07-17T01:24:28;17.00;99.90
18541;DHT22;9400;50.924;5.328;2022-07-17T01:26:55;17.00;99.90
18541;DHT22;9400;50.924;5.328;2022-07-17T01:29:23;17.00;99.90
18541;DHT22;9400;50.924;5.328;2022-07-17T01:31:51;17.10;99.90
18541;DHT22;9400;50.924;5.328;2022-07-17T01:34:18;17.10;99.90
18541;DHT22;9400;50.924;5.328;2022-07-17T01:36:45;17.10;99.90
18541;DHT22;9400;50.924;5.328;2022-07-17T01:39:14;17.00;99.90
18541;DHT22;9400;50.924;5.328;2022-07-17T01:41:42;17.00;99.90
18541;DHT22;9400;50.924;5.328;2022-07-17T01:44:09;16.90;99.90
18541;DHT22;9400;50.924;5.328;2022-07-17T01:46:37;16.90;99.90
18541;DHT22;9400;50.924;5.328;2022-07-17T01:49:04;17.00;99.90
18541;DHT22;9400;50.924;5.328;2022-07-17T01:51:32;17.00;99.90
18541;DHT22;9400;50.924;5.328;2022-07-17T01:54:00;17.00;99.90
18541;DHT22;9400;50.924;5.328;2022-07-17T01:56:28;16.90;99.90
18541;DHT22;9400;50.924;5.328;2022-07-17T01:58:56;17.00;99.90
18541;DHT22;9400;50.924;5.328;2022-07-17T02:01:23;17.10;99.90
18541;DHT22;9400;50.924;5.328;2022-07-17T02:03:51;16.90;99.90
18541;DHT22;9400;50.924;5.328;2022-07-17T02:06:18;16.90;99.90
18541;DHT22;9400;50.924;5.328;2022-07-17T02:08:46;16.90;99.90
18541;DHT22;9400;50.924;5.328;2022-07-17T02:11:16;16.90;99.90
18541;DHT22;9400;50.924;5.328;2022-07-17T02:13:45;16.70;99.90
18541;DHT22;9400;50.924;5.328;2022-07-17T02:16:12;16.90;99.90
18541;DHT22;9400;50.924;5.328;2022-07-17T02:18:40;16.60;99.90
18541;DHT22;9400;50.924;5.328;2022-07-17T02:21:08;16.60;99.90
18541;DHT22;9400;50.924;5.328;2022-07-17T02:23:36;16.40;99.90
18541;DHT22;9400;50.924;5.328;2022-07-17T02:26:03;16.40;99.90
18541;DHT22;9400;50.924;5.328;2022-07-17T02:28:31;16.40;99.90
18541;DHT22;9400;50.924;5.328;2022-07-17T02:31:00;16.30;99.90
18541;DHT22;9400;50.924;5.328;2022-07-17T02:33:27;16.20;99.90
18541;DHT22;9400;50.924;5.328;2022-07-17T02:35:55;16.10;99.90
18541;DHT22;9400;50.924;5.328;2022-07-17T02:38:22;16.10;99.90
18541;DHT22;9400;50.924;5.328;2022-07-17T02:40:50;16.20;99.90
18541;DHT22;9400;50.924;5.328;2022-07-17T02:43:17;16.00;99.90
18541;DHT22;9400;50.924;5.328;2022-07-17T02:45:44;16.00;99.90
18541;DHT22;9400;50.924;5.328;2022-07-17T02:48:13;16.00;99.90
18541;DHT22;9400;50.924;5.328;2022-07-17T02:50:41;15.90;99.90
18541;DHT22;9400;50.924;5.328;2022-07-17T02:53:08;15.90;99.90
18541;DHT22;9400;50.924;5.328;2022-07-17T02:55:36;16.00;99.90
18541;DHT22;9400;50.924;5.328;2022-07-17T02:58:04;15.80;99.90
18541;DHT22;9400;50.924;5.328;2022-07-17T03:00:32;15.90;99.90
18541;DHT22;9400;50.924;5.328;2022-07-17T03:03:00;15.90;99.90
18541;DHT22;9400;50.924;5.328;2022-07-17T03:05:29;16.00;99.90
18541;DHT22;9400;50.924;5.328;2022-07-17T03:07:58;16.10;99.90
18541;DHT22;9400;50.924;5.328;2022-07-17T03:10:25;15.70;99.90
18541;DHT22;9400;50.924;5.328;2022-07-17T03:12:53;15.80;99.90
18541;DHT22;9400;50.924;5.328;2022-07-17T03:15:21;15.70;99.90
18541;DHT22;9400;50.924;5.328;2022-07-17T03:17:48;15.70;99.90
18541;DHT22;9400;50.924;5.328;2022-07-17T03:20:15;15.70;99.90
18541;DHT22;9400;50.924;5.328;2022-07-17T03:22:44;15.60;99.90
18541;DHT22;9400;50.924;5.328;2022-07-17T03:25:12;15.60;99.90
18541;DHT22;9400;50.924;5.328;2022-07-17T03:27:39;15.50;99.90
18541;DHT22;9400;50.924;5.328;2022-07-17T03:30:08;15.50;99.90
18541;DHT22;9400;50.924;5.328;2022-07-17T03:32:35;15.50;99.90
18541;DHT22;9400;50.924;5.328;2022-07-17T03:35:03;15.50;99.90
18541;DHT22;9400;50.924;5.328;2022-07-17T03:37:31;15.50;99.90
18541;DHT22;9400;50.924;5.328;2022-07-17T03:40:00;15.40;99.90
18541;DHT22;9400;50.924;5.328;2022-07-17T03:42:27;15.30;99.90
18541;DHT22;9400;50.924;5.328;2022-07-17T03:44:55;15.30;99.90
18541;DHT22;9400;50.924;5.328;2022-07-17T03:47:22;15.30;99.90
18541;DHT22;9400;50.924;5.328;2022-07-17T03:49:50;15.50;99.90
18541;DHT22;9400;50.924;5.328;2022-07-17T03:52:17;15.60;99.90
18541;DHT22;9400;50.924;5.328;2022-07-17T03:54:45;15.70;99.90
18541;DHT22;9400;50.924;5.328;2022-07-17T03:57:14;15.80;99.90
18541;DHT22;9400;50.924;5.328;2022-07-17T03:59:41;15.70;99.90
18541;DHT22;9400;50.924;5.328;2022-07-17T04:02:09;15.60;99.90
18541;DHT22;9400;50.924;5.328;2022-07-17T04:04:36;15.60;99.90
18541;DHT22;9400;50.924;5.328;2022-07-17T04:07:04;15.60;99.90
18541;DHT22;9400;50.924;5.328;2022-07-17T04:09:31;15.60;99.90
18541;DHT22;9400;50.924;5.328;2022-07-17T04:11:59;15.70;99.90
18541;DHT22;9400;50.924;5.328;2022-07-17T04:14:28;15.70;99.90
18541;DHT22;9400;50.924;5.328;2022-07-17T04:16:55;15.80;99.90
18541;DHT22;9400;50.924;5.328;2022-07-17T04:19:23;15.60;99.90
18541;DHT22;9400;50.924;5.328;2022-07-17T04:21:50;15.70;99.90
18541;DHT22;9400;50.924;5.328;2022-07-17T04:24:18;15.70;99.90
18541;DHT22;9400;50.924;5.328;2022-07-17T04:26:45;15.70;99.90
18541;DHT22;9400;50.924;5.328;2022-07-17T04:29:12;15.70;99.90
18541;DHT22;9400;50.924;5.328;2022-07-17T04:31:43;15.80;99.90
18541;DHT22;9400;50.924;5.328;2022-07-17T04:34:11;15.80;99.90
18541;DHT22;9400;50.924;5.328;2022-07-17T04:36:38;15.80;99.90
18541;DHT22;9400;50.924;5.328;2022-07-17T04:39:06;15.90;99.90
18541;DHT22;9400;50.924;5.328;2022-07-17T04:41:34;15.80;99.90
18541;DHT22;9400;50.924;5.328;2022-07-17T04:44:02;15.80;99.90
18541;DHT22;9400;50.924;5.328;2022-07-17T04:46:29;15.90;99.90
18541;DHT22;9400;50.924;5.328;2022-07-17T04:48:58;16.00;99.90
18541;DHT22;9400;50.924;5.328;2022-07-17T04:51:26;15.90;99.90
18541;DHT22;9400;50.924;5.328;2022-07-17T04:53:54;15.90;99.90
18541;DHT22;9400;50.924;5.328;2022-07-17T04:56:22;15.90;99.90
18541;DHT22;9400;50.924;5.328;2022-07-17T04:58:50;16.10;99.90
18541;DHT22;9400;50.924;5.328;2022-07-17T05:01:18;16.20;99.90
18541;DHT22;9400;50.924;5.328;2022-07-17T05:03:45;16.30;99.90
18541;DHT22;9400;50.924;5.328;2022-07-17T05:06:15;16.30;99.90
18541;DHT22;9400;50.924;5.328;2022-07-17T05:08:42;16.40;99.90
18541;DHT22;9400;50.924;5.328;2022-07-17T05:11:09;16.50;99.90
18541;DHT22;9400;50.924;5.328;2022-07-17T05:13:37;16.50;99.90
18541;DHT22;9400;50.924;5.328;2022-07-17T05:16:05;16.60;99.90
18541;DHT22;9400;50.924;5.328;2022-07-17T05:18:32;16.50;99.90
18541;DHT22;9400;50.924;5.328;2022-07-17T05:21:00;16.50;99.90
18541;DHT22;9400;50.924;5.328;2022-07-17T05:23:29;16.50;99.90
18541;DHT22;9400;50.924;5.328;2022-07-17T05:25:57;16.60;99.90
18541;DHT22;9400;50.924;5.328;2022-07-17T05:28:25;16.60;99.90
18541;DHT22;9400;50.924;5.328;2022-07-17T05:30:52;16.50;99.90
18541;DHT22;9400;50.924;5.328;2022-07-17T05:33:20;16.60;99.90
18541;DHT22;9400;50.924;5.328;2022-07-17T05:35:47;16.80;99.90
18541;DHT22;9400;50.924;5.328;2022-07-17T05:38:15;16.80;99.90
18541;DHT22;9400;50.924;5.328;2022-07-17T05:40:44;16.60;99.90
18541;DHT22;9400;50.924;5.328;2022-07-17T05:43:11;16.70;99.90
18541;DHT22;9400;50.924;5.328;2022-07-17T05:45:39;16.70;99.90
18541;DHT22;9400;50.924;5.328;2022-07-17T05:48:06;16.60;99.90
18541;DHT22;9400;50.924;5.328;2022-07-17T05:50:34;16.60;99.90
18541;DHT22;9400;50.924;5.328;2022-07-17T05:53:02;16.90;99.90
18541;DHT22;9400;50.924;5.328;2022-07-17T05:55:29;17.00;99.90
18541;DHT22;9400;50.924;5.328;2022-07-17T05:57:58;17.10;99.90
18541;DHT22;9400;50.924;5.328;2022-07-17T06:00:26;17.20;99.90
18541;DHT22;9400;50.924;5.328;2022-07-17T06:02:53;17.20;99.90
18541;DHT22;9400;50.924;5.328;2022-07-17T06:05:21;17.10;99.90
18541;DHT22;9400;50.924;5.328;2022-07-17T06:07:49;17.20;99.90
18541;DHT22;9400;50.924;5.328;2022-07-17T06:10:16;17.50;99.90
18541;DHT22;9400;50.924;5.328;2022-07-17T06:12:44;17.50;99.90
18541;DHT22;9400;50.924;5.328;2022-07-17T06:15:13;17.70;99.90
18541;DHT22;9400;50.924;5.328;2022-07-17T06:17:40;17.70;99.90
18541;DHT22;9400;50.924;5.328;2022-07-17T06:20:09;17.70;99.90
18541;DHT22;9400;50.924;5.328;2022-07-17T06:22:36;17.60;99.90
18541;DHT22;9400;50.924;5.328;2022-07-17T06:25:04;17.70;99.90
18541;DHT22;9400;50.924;5.328;2022-07-17T06:27:32;17.90;99.90
18541;DHT22;9400;50.924;5.328;2022-07-17T06:29:59;17.90;99.90
18541;DHT22;9400;50.924;5.328;2022-07-17T06:32:28;18.10;99.90
18541;DHT22;9400;50.924;5.328;2022-07-17T06:34:56;18.20;99.90
18541;DHT22;9400;50.924;5.328;2022-07-17T06:37:23;18.20;99.90
18541;DHT22;9400;50.924;5.328;2022-07-17T06:39:51;18.30;99.90
18541;DHT22;9400;50.924;5.328;2022-07-17T06:42:18;18.40;99.90
18541;DHT22;9400;50.924;5.328;2022-07-17T06:44:46;18.60;99.90
18541;DHT22;9400;50.924;5.328;2022-07-17T06:47:13;18.50;99.90
18541;DHT22;9400;50.924;5.328;2022-07-17T06:49:42;18.70;99.90
18541;DHT22;9400;50.924;5.328;2022-07-17T06:52:10;18.70;99.90
18541;DHT22;9400;50.924;5.328;2022-07-17T06:54:38;18.70;99.90
18541;DHT22;9400;50.924;5.328;2022-07-17T06:57:05;18.60;99.90
18541;DHT22;9400;50.924;5.328;2022-07-17T06:59:34;18.80;99.90
18541;DHT22;9400;50.924;5.328;2022-07-17T07:02:01;18.90;99.90
18541;DHT22;9400;50.924;5.328;2022-07-17T07:04:29;19.10;99.90
18541;DHT22;9400;50.924;5.328;2022-07-17T07:06:58;19.30;99.90
18541;DHT22;9400;50.924;5.328;2022-07-17T07:09:25;19.20;99.90
18541;DHT22;9400;50.924;5.328;2022-07-17T07:11:53;19.40;99.90
18541;DHT22;9400;50.924;5.328;2022-07-17T07:14:21;19.30;99.90
18541;DHT22;9400;50.924;5.328;2022-07-17T07:16:48;19.50;99.90
18541;DHT22;9400;50.924;5.328;2022-07-17T07:19:16;19.50;99.90
18541;DHT22;9400;50.924;5.328;2022-07-17T07:21:44;19.60;99.90
18541;DHT22;9400;50.924;5.328;2022-07-17T07:24:13;19.60;99.90
18541;DHT22;9400;50.924;5.328;2022-07-17T07:26:41;19.50;99.90
18541;DHT22;9400;50.924;5.328;2022-07-17T07:29:09;19.60;99.90
18541;DHT22;9400;50.924;5.328;2022-07-17T07:31:37;19.60;99.90
18541;DHT22;9400;50.924;5.328;2022-07-17T07:34:04;19.50;99.90
18541;DHT22;9400;50.924;5.328;2022-07-17T07:36:32;19.80;99.90
18541;DHT22;9400;50.924;5.328;2022-07-17T07:38:59;20.00;99.90
18541;DHT22;9400;50.924;5.328;2022-07-17T07:41:28;20.20;99.90
18541;DHT22;9400;50.924;5.328;2022-07-17T07:43:56;20.40;99.90
18541;DHT22;9400;50.924;5.328;2022-07-17T07:46:23;20.40;99.90
18541;DHT22;9400;50.924;5.328;2022-07-17T07:48:51;20.40;99.90
18541;DHT22;9400;50.924;5.328;2022-07-17T07:51:19;20.40;99.90
18541;DHT22;9400;50.924;5.328;2022-07-17T07:53:46;20.50;99.90
18541;DHT22;9400;50.924;5.328;2022-07-17T07:56:14;20.50;99.90
18541;DHT22;9400;50.924;5.328;2022-07-17T07:58:43;20.60;99.90
18541;DHT22;9400;50.924;5.328;2022-07-17T08:01:10;20.70;99.90
18541;DHT22;9400;50.924;5.328;2022-07-17T08:03:38;20.70;99.90
18541;DHT22;9400;50.924;5.328;2022-07-17T08:06:06;20.80;99.90
18541;DHT22;9400;50.924;5.328;2022-07-17T08:08:33;20.90;99.90
18541;DHT22;9400;50.924;5.328;2022-07-17T08:11:00;20.90;99.90
18541;DHT22;9400;50.924;5.328;2022-07-17T08:13:28;21.00;99.90
18541;DHT22;9400;50.924;5.328;2022-07-17T08:15:57;21.20;99.90
18541;DHT22;9400;50.924;5.328;2022-07-17T08:18:26;21.20;99.90
18541;DHT22;9400;50.924;5.328;2022-07-17T08:20:53;21.30;99.90
18541;DHT22;9400;50.924;5.328;2022-07-17T08:23:21;21.10;99.90
18541;DHT22;9400;50.924;5.328;2022-07-17T08:25:48;21.10;99.90
18541;DHT22;9400;50.924;5.328;2022-07-17T08:28:16;21.20;99.90
18541;DHT22;9400;50.924;5.328;2022-07-17T08:30:44;21.40;99.90
18541;DHT22;9400;50.924;5.328;2022-07-17T08:33:13;21.40;99.90
18541;DHT22;9400;50.924;5.328;2022-07-17T08:35:42;21.50;99.90
18541;DHT22;9400;50.924;5.328;2022-07-17T08:38:10;21.40;99.90
18541;DHT22;9400;50.924;5.328;2022-07-17T08:40:39;21.50;99.90
18541;DHT22;9400;50.924;5.328;2022-07-17T08:43:10;21.70;99.90
18541;DHT22;9400;50.924;5.328;2022-07-17T08:45:39;21.90;99.90
18541;DHT22;9400;50.924;5.328;2022-07-17T08:48:09;22.20;99.90
18541;DHT22;9400;50.924;5.328;2022-07-17T08:50:40;22.30;99.90
18541;DHT22;9400;50.924;5.328;2022-07-17T08:53:08;22.00;99.90
18541;DHT22;9400;50.924;5.328;2022-07-17T08:55:37;22.10;99.90
18541;DHT22;9400;50.924;5.328;2022-07-17T08:58:04;22.30;99.90
18541;DHT22;9400;50.924;5.328;2022-07-17T09:00:32;22.30;99.90
18541;DHT22;9400;50.924;5.328;2022-07-17T09:03:02;22.50;99.90
18541;DHT22;9400;50.924;5.328;2022-07-17T09:05:32;22.70;99.90
18541;DHT22;9400;50.924;5.328;2022-07-17T09:08:02;22.80;99.90
18541;DHT22;9400;50.924;5.328;2022-07-17T09:10:31;22.90;99.90
18541;DHT22;9400;50.924;5.328;2022-07-17T09:13:00;22.70;99.90
18541;DHT22;9400;50.924;5.328;2022-07-17T09:15:28;22.70;99.90
18541;DHT22;9400;50.924;5.328;2022-07-17T09:17:56;22.80;99.90
18541;DHT22;9400;50.924;5.328;2022-07-17T09:20:24;22.90;99.90
18541;DHT22;9400;50.924;5.328;2022-07-17T09:22:59;23.00;99.90
18541;DHT22;9400;50.924;5.328;2022-07-17T09:25:39;23.30;99.90
18541;DHT22;9400;50.924;5.328;2022-07-17T09:28:08;23.20;99.90
18541;DHT22;9400;50.924;5.328;2022-07-17T09:30:37;23.40;99.90
18541;DHT22;9400;50.924;5.328;2022-07-17T09:33:06;23.30;99.90
18541;DHT22;9400;50.924;5.328;2022-07-17T09:35:43;23.00;99.90
18541;DHT22;9400;50.924;5.328;2022-07-17T09:38:13;23.00;99.90
18541;DHT22;9400;50.924;5.328;2022-07-17T09:40:43;23.10;99.90
18541;DHT22;9400;50.924;5.328;2022-07-17T09:43:42;23.00;99.90
18541;DHT22;9400;50.924;5.328;2022-07-17T09:46:17;23.30;99.90
18541;DHT22;9400;50.924;5.328;2022-07-17T09:48:50;23.40;99.90
18541;DHT22;9400;50.924;5.328;2022-07-17T09:51:21;23.40;99.90
18541;DHT22;9400;50.924;5.328;2022-07-17T09:53:50;23.20;99.90
18541;DHT22;9400;50.924;5.328;2022-07-17T09:56:22;23.50;99.90
18541;DHT22;9400;50.924;5.328;2022-07-17T09:58:51;23.80;99.90
18541;DHT22;9400;50.924;5.328;2022-07-17T10:01:19;23.80;99.90
18541;DHT22;9400;50.924;5.328;2022-07-17T10:03:47;23.90;99.90
18541;DHT22;9400;50.924;5.328;2022-07-17T10:06:17;24.10;99.90
18541;DHT22;9400;50.924;5.328;2022-07-17T10:08:45;24.00;99.90
18541;DHT22;9400;50.924;5.328;2022-07-17T10:11:13;24.20;99.90
18541;DHT22;9400;50.924;5.328;2022-07-17T10:13:44;24.40;99.90
18541;DHT22;9400;50.924;5.328;2022-07-17T10:16:13;24.60;99.90
18541;DHT22;9400;50.924;5.328;2022-07-17T10:18:42;24.90;99.90
18541;DHT22;9400;50.924;5.328;2022-07-17T10:21:15;25.10;99.90
18541;DHT22;9400;50.924;5.328;2022-07-17T10:23:47;24.60;99.90
18541;DHT22;9400;50.924;5.328;2022-07-17T10:26:15;24.70;99.90
18541;DHT22;9400;50.924;5.328;2022-07-17T10:28:46;24.70;99.90
18541;DHT22;9400;50.924;5.328;2022-07-17T10:31:23;24.80;99.90
18541;DHT22;9400;50.924;5.328;2022-07-17T10:33:56;24.70;99.90
18541;DHT22;9400;50.924;5.328;2022-07-17T10:36:43;24.90;99.90
18541;DHT22;9400;50.924;5.328;2022-07-17T10:39:15;24.70;99.90
18541;DHT22;9400;50.924;5.328;2022-07-17T10:41:56;25.00;99.90
18541;DHT22;9400;50.924;5.328;2022-07-17T10:44:29;25.00;99.90
18541;DHT22;9400;50.924;5.328;2022-07-17T10:46:58;25.30;99.90
18541;DHT22;9400;50.924;5.328;2022-07-17T10:49:26;25.10;99.90
18541;DHT22;9400;50.924;5.328;2022-07-17T10:51:54;25.00;99.90
18541;DHT22;9400;50.924;5.328;2022-07-17T10:54:33;25.10;99.90
18541;DHT22;9400;50.924;5.328;2022-07-17T10:57:01;25.40;99.90
18541;DHT22;9400;50.924;5.328;2022-07-17T10:59:31;25.60;99.90
18541;DHT22;9400;50.924;5.328;2022-07-17T11:02:00;25.60;99.90
18541;DHT22;9400;50.924;5.328;2022-07-17T11:04:36;25.80;99.90
18541;DHT22;9400;50.924;5.328;2022-07-17T11:07:06;26.10;99.90
18541;DHT22;9400;50.924;5.328;2022-07-17T11:09:34;26.50;99.90
18541;DHT22;9400;50.924;5.328;2022-07-17T11:12:01;26.50;99.90
18541;DHT22;9400;50.924;5.328;2022-07-17T11:14:31;26.30;99.90
18541;DHT22;9400;50.924;5.328;2022-07-17T11:17:00;26.40;99.90
18541;DHT22;9400;50.924;5.328;2022-07-17T11:19:30;25.90;99.90
18541;DHT22;9400;50.924;5.328;2022-07-17T11:21:59;26.40;99.90
18541;DHT22;9400;50.924;5.328;2022-07-17T11:24:36;26.60;99.90
18541;DHT22;9400;50.924;5.328;2022-07-17T11:27:04;26.60;99.90
18541;DHT22;9400;50.924;5.328;2022-07-17T11:29:37;26.50;99.90
18541;DHT22;9400;50.924;5.328;2022-07-17T11:32:05;26.60;99.90
18541;DHT22;9400;50.924;5.328;2022-07-17T11:34:33;26.80;99.90
18541;DHT22;9400;50.924;5.328;2022-07-17T11:37:01;27.30;99.90
18541;DHT22;9400;50.924;5.328;2022-07-17T11:39:37;27.20;99.90
18541;DHT22;9400;50.924;5.328;2022-07-17T11:42:08;27.70;99.90
18541;DHT22;9400;50.924;5.328;2022-07-17T11:44:38;27.40;99.90
18541;DHT22;9400;50.924;5.328;2022-07-17T11:47:06;27.50;99.90
18541;DHT22;9400;50.924;5.328;2022-07-17T11:49:35;27.50;99.90
18541;DHT22;9400;50.924;5.328;2022-07-17T11:52:08;27.70;99.90
18541;DHT22;9400;50.924;5.328;2022-07-17T11:54:45;27.70;99.90
18541;DHT22;9400;50.924;5.328;2022-07-17T11:57:12;27.40;99.90
18541;DHT22;9400;50.924;5.328;2022-07-17T11:59:41;27.70;99.90
18541;DHT22;9400;50.924;5.328;2022-07-17T12:02:10;27.80;99.90
18541;DHT22;9400;50.924;5.328;2022-07-17T12:04:48;27.80;99.90
18541;DHT22;9400;50.924;5.328;2022-07-17T12:07:17;28.20;99.90
18541;DHT22;9400;50.924;5.328;2022-07-17T12:09:44;28.40;99.90
18541;DHT22;9400;50.924;5.328;2022-07-17T12:12:19;28.40;99.90
18541;DHT22;9400;50.924;5.328;2022-07-17T12:14:52;28.40;99.90
18541;DHT22;9400;50.924;5.328;2022-07-17T12:17:20;28.70;99.90
18541;DHT22;9400;50.924;5.328;2022-07-17T12:19:48;29.00;99.90
18541;DHT22;9400;50.924;5.328;2022-07-17T12:22:17;29.40;99.90
18541;DHT22;9400;50.924;5.328;2022-07-17T12:24:45;29.80;99.90
18541;DHT22;9400;50.924;5.328;2022-07-17T12:27:14;29.50;99.90
18541;DHT22;9400;50.924;5.328;2022-07-17T12:29:43;29.90;99.90
18541;DHT22;9400;50.924;5.328;2022-07-17T12:32:14;30.70;99.90
18541;DHT22;9400;50.924;5.328;2022-07-17T12:34:45;30.90;99.90
18541;DHT22;9400;50.924;5.328;2022-07-17T12:37:13;31.20;99.90
18541;DHT22;9400;50.924;5.328;2022-07-17T12:39:40;31.40;99.90
18541;DHT22;9400;50.924;5.328;2022-07-17T12:42:07;31.60;99.90
18541;DHT22;9400;50.924;5.328;2022-07-17T12:44:35;31.90;99.90
18541;DHT22;9400;50.924;5.328;2022-07-17T12:47:09;32.10;99.90
18541;DHT22;9400;50.924;5.328;2022-07-17T12:49:38;31.80;99.90
18541;DHT22;9400;50.924;5.328;2022-07-17T12:52:06;31.90;99.90
18541;DHT22;9400;50.924;5.328;2022-07-17T12:54:34;31.80;99.90
18541;DHT22;9400;50.924;5.328;2022-07-17T12:57:04;31.20;99.90
18541;DHT22;9400;50.924;5.328;2022-07-17T12:59:33;31.60;99.90
18541;DHT22;9400;50.924;5.328;2022-07-17T13:02:01;31.40;99.90
18541;DHT22;9400;50.924;5.328;2022-07-17T13:04:28;31.80;99.90
18541;DHT22;9400;50.924;5.328;2022-07-17T13:06:57;32.00;99.90
18541;DHT22;9400;50.924;5.328;2022-07-17T13:09:25;32.20;99.90
18541;DHT22;9400;50.924;5.328;2022-07-17T13:11:53;32.60;99.90
18541;DHT22;9400;50.924;5.328;2022-07-17T13:14:20;32.50;99.90
18541;DHT22;9400;50.924;5.328;2022-07-17T13:16:48;32.40;99.90
18541;DHT22;9400;50.924;5.328;2022-07-17T13:19:15;32.10;99.90
18541;DHT22;9400;50.924;5.328;2022-07-17T13:21:43;33.00;99.90
18541;DHT22;9400;50.924;5.328;2022-07-17T13:24:12;33.30;99.90
18541;DHT22;9400;50.924;5.328;2022-07-17T13:26:39;33.60;99.90
18541;DHT22;9400;50.924;5.328;2022-07-17T13:29:06;32.80;99.90
18541;DHT22;9400;50.924;5.328;2022-07-17T13:31:34;33.30;99.80
18541;DHT22;9400;50.924;5.328;2022-07-17T13:34:02;33.20;99.00
18541;DHT22;9400;50.924;5.328;2022-07-17T13:36:29;33.30;98.40
18541;DHT22;9400;50.924;5.328;2022-07-17T13:38:57;33.40;98.20
18541;DHT22;9400;50.924;5.328;2022-07-17T13:41:25;33.70;99.00
18541;DHT22;9400;50.924;5.328;2022-07-17T13:43:56;33.80;98.30
18541;DHT22;9400;50.924;5.328;2022-07-17T13:46:23;34.50;98.80
18541;DHT22;9400;50.924;5.328;2022-07-17T13:48:51;34.30;96.30
18541;DHT22;9400;50.924;5.328;2022-07-17T13:51:18;34.20;95.60
18541;DHT22;9400;50.924;5.328;2022-07-17T13:53:46;34.30;95.60
18541;DHT22;9400;50.924;5.328;2022-07-17T13:56:14;35.00;96.50
18541;DHT22;9400;50.924;5.328;2022-07-17T13:58:43;34.90;95.40
18541;DHT22;9400;50.924;5.328;2022-07-17T14:01:11;35.30;95.90
18541;DHT22;9400;50.924;5.328;2022-07-17T14:03:39;34.60;95.90
18541;DHT22;9400;50.924;5.328;2022-07-17T14:06:07;34.60;95.00
18541;DHT22;9400;50.924;5.328;2022-07-17T14:08:35;35.10;95.90
18541;DHT22;9400;50.924;5.328;2022-07-17T14:11:03;35.70;96.40
18541;DHT22;9400;50.924;5.328;2022-07-17T14:13:30;35.90;95.60
18541;DHT22;9400;50.924;5.328;2022-07-17T14:15:59;35.20;94.10
18541;DHT22;9400;50.924;5.328;2022-07-17T14:18:27;34.30;94.10
18541;DHT22;9400;50.924;5.328;2022-07-17T14:20:55;35.00;93.70
18541;DHT22;9400;50.924;5.328;2022-07-17T14:23:22;35.60;93.60
18541;DHT22;9400;50.924;5.328;2022-07-17T14:25:50;36.20;93.60
18541;DHT22;9400;50.924;5.328;2022-07-17T14:28:17;36.60;93.40
18541;DHT22;9400;50.924;5.328;2022-07-17T14:30:44;37.40;92.70
18541;DHT22;9400;50.924;5.328;2022-07-17T14:33:13;37.10;92.50
18541;DHT22;9400;50.924;5.328;2022-07-17T14:35:41;38.00;92.60
18541;DHT22;9400;50.924;5.328;2022-07-17T14:38:09;38.90;91.70
18541;DHT22;9400;50.924;5.328;2022-07-17T14:40:37;37.80;90.90
18541;DHT22;9400;50.924;5.328;2022-07-17T14:43:04;36.80;89.20
18541;DHT22;9400;50.924;5.328;2022-07-17T14:45:32;36.50;88.80
18541;DHT22;9400;50.924;5.328;2022-07-17T14:48:00;36.20;89.50
18541;DHT22;9400;50.924;5.328;2022-07-17T14:50:29;35.60;88.80
18541;DHT22;9400;50.924;5.328;2022-07-17T14:52:57;36.70;89.20
18541;DHT22;9400;50.924;5.328;2022-07-17T14:55:24;36.40;86.90
18541;DHT22;9400;50.924;5.328;2022-07-17T14:57:52;36.30;87.80
18541;DHT22;9400;50.924;5.328;2022-07-17T15:00:20;37.20;89.20
18541;DHT22;9400;50.924;5.328;2022-07-17T15:02:47;37.10;88.00
18541;DHT22;9400;50.924;5.328;2022-07-17T15:05:15;37.40;86.10
18541;DHT22;9400;50.924;5.328;2022-07-17T15:07:45;38.20;86.00
18541;DHT22;9400;50.924;5.328;2022-07-17T15:10:12;36.10;86.50
18541;DHT22;9400;50.924;5.328;2022-07-17T15:12:40;36.60;88.10
18541;DHT22;9400;50.924;5.328;2022-07-17T15:15:09;36.70;86.90
18541;DHT22;9400;50.924;5.328;2022-07-17T15:17:36;36.20;87.20
18541;DHT22;9400;50.924;5.328;2022-07-17T15:20:05;35.90;87.30
18541;DHT22;9400;50.924;5.328;2022-07-17T15:22:33;35.80;86.80
18541;DHT22;9400;50.924;5.328;2022-07-17T15:25:03;37.00;86.70
18541;DHT22;9400;50.924;5.328;2022-07-17T15:27:31;37.40;88.60
18541;DHT22;9400;50.924;5.328;2022-07-17T15:29:59;37.90;85.50
18541;DHT22;9400;50.924;5.328;2022-07-17T15:32:27;37.70;84.90
18541;DHT22;9400;50.924;5.328;2022-07-17T15:34:54;37.20;83.20
18541;DHT22;9400;50.924;5.328;2022-07-17T15:37:22;37.60;83.30
18541;DHT22;9400;50.924;5.328;2022-07-17T15:39:50;37.50;84.00
18541;DHT22;9400;50.924;5.328;2022-07-17T15:42:20;38.50;83.70
18541;DHT22;9400;50.924;5.328;2022-07-17T15:44:48;37.50;81.40
18541;DHT22;9400;50.924;5.328;2022-07-17T15:47:15;37.20;82.10
18541;DHT22;9400;50.924;5.328;2022-07-17T15:49:43;37.40;82.30
18541;DHT22;9400;50.924;5.328;2022-07-17T15:52:11;36.90;81.80